sensor_id;sensor_type;location;lat;lon;timestamp;pressure;altitude;pressure_sealevel;temperature;humidity
60015;BME280;45867;52.480;6.056;2023-08-21T00:02:09;102326.22;;;15.26;100.00
60015;BME280;45867;52.480;6.056;2023-08-21T00:04:35;102323.00;;;15.24;100.00
60015;BME280;45867;52.480;6.056;2023-08-21T00:07:01;102335.84;;;15.32;100.00
60015;BME280;45867;52.480;6.056;2023-08-21T00:09:28;102348.66;;;15.30;100.00
60015;BME280;45867;52.480;6.056;2023-08-21T00:11:54;102351.88;;;15.32;100.00
60015;BME280;45867;52.480;6.056;2023-08-21T00:14:21;102351.31;;;15.20;100.00
60015;BME280;45867;52.480;6.056;2023-08-21T00:16:47;102346.75;;;15.15;100.00
60015;BME280;45867;52.480;6.056;2023-08-21T00:19:13;102346.47;;;15.17;100.00
60015;BME280;45867;52.480;6.056;2023-08-21T00:21:40;102340.13;;;15.28;100.00
60015;BME280;45867;52.480;6.056;2023-08-21T00:24:06;102336.09;;;15.25;100.00
60015;BME280;45867;52.480;6.056;2023-08-21T00:26:33;102348.13;;;15.33;100.00
60015;BME280;45867;52.480;6.056;2023-08-21T00:28:59;102345.72;;;15.26;100.00
60015;BME280;45867;52.480;6.056;2023-08-21T00:31:26;102346.97;;;15.14;100.00
60015;BME280;45867;52.480;6.056;2023-08-21T00:33:52;102354.19;;;15.13;100.00
60015;BME280;45867;52.480;6.056;2023-08-21T00:36:19;102340.28;;;15.11;100.00
60015;BME280;45867;52.480;6.056;2023-08-21T00:38:46;102321.03;;;14.99;100.00
60015;BME280;45867;52.480;6.056;2023-08-21T00:41:12;102340.56;;;15.09;100.00
60015;BME280;45867;52.480;6.056;2023-08-21T00:43:39;102347.47;;;15.05;100.00
60015;BME280;45867;52.480;6.056;2023-08-21T00:46:05;102330.34;;;14.96;100.00
60015;BME280;45867;52.480;6.056;2023-08-21T00:48:33;102332.47;;;14.94;100.00
60015;BME280;45867;52.480;6.056;2023-08-21T00:50:59;102330.56;;;14.84;100.00
60015;BME280;45867;52.480;6.056;2023-08-21T00:53:26;102326.78;;;14.80;100.00
60015;BME280;45867;52.480;6.056;2023-08-21T00:55:53;102323.03;;;14.76;100.00
60015;BME280;45867;52.480;6.056;2023-08-21T00:58:19;102308.81;;;14.65;100.00
60015;BME280;45867;52.480;6.056;2023-08-21T01:00:47;102325.38;;;14.73;100.00
60015;BME280;45867;52.480;6.056;2023-08-21T01:03:14;102317.25;;;14.52;100.00
60015;BME280;45867;52.480;6.056;2023-08-21T01:05:41;102333.31;;;14.57;100.00
60015;BME280;45867;52.480;6.056;2023-08-21T01:08:19;102333.31;;;14.57;100.00
60015;BME280;45867;52.480;6.056;2023-08-21T01:10:54;102341.47;;;14.51;100.00
60015;BME280;45867;52.480;6.056;2023-08-21T01:16:00;102353.47;;;14.48;100.00
60015;BME280;45867;52.480;6.056;2023-08-21T01:18:28;102337.59;;;14.31;100.00
60015;BME280;45867;52.480;6.056;2023-08-21T01:20:55;102352.91;;;14.41;100.00
60015;BME280;45867;52.480;6.056;2023-08-21T01:23:28;102368.09;;;14.40;100.00
60015;BME280;45867;52.480;6.056;2023-08-21T01:25:55;102372.88;;;14.38;100.00
60015;BME280;45867;52.480;6.056;2023-08-21T01:28:21;102370.72;;;14.35;100.00
60015;BME280;45867;52.480;6.056;2023-08-21T01:30:50;102365.56;;;14.29;100.00
60015;BME280;45867;52.480;6.056;2023-08-21T01:33:19;102356.44;;;14.19;100.00
60015;BME280;45867;52.480;6.056;2023-08-21T01:35:46;102373.88;;;14.32;100.00
60015;BME280;45867;52.480;6.056;2023-08-21T01:38:13;102369.88;;;14.35;100.00
60015;BME280;45867;52.480;6.056;2023-08-21T01:40:40;102368.44;;;14.49;100.00
60015;BME280;45867;52.480;6.056;2023-08-21T01:43:06;102376.13;;;14.46;100.00
60015;BME280;45867;52.480;6.056;2023-08-21T01:45:33;102382.28;;;14.46;100.00
60015;BME280;45867;52.480;6.056;2023-08-21T01:47:59;102373.91;;;14.37;100.00
60015;BME280;45867;52.480;6.056;2023-08-21T01:50:26;102374.63;;;14.28;100.00
60015;BME280;45867;52.480;6.056;2023-08-21T01:52:52;102386.09;;;14.28;100.00
60015;BME280;45867;52.480;6.056;2023-08-21T01:55:18;102388.78;;;14.28;100.00
60015;BME280;45867;52.480;6.056;2023-08-21T01:57:45;102390.06;;;14.26;100.00
60015;BME280;45867;52.480;6.056;2023-08-21T02:00:12;102381.84;;;14.27;100.00
60015;BME280;45867;52.480;6.056;2023-08-21T02:02:38;102376.16;;;14.51;100.00
60015;BME280;45867;52.480;6.056;2023-08-21T02:05:06;102375.34;;;14.50;100.00
60015;BME280;45867;52.480;6.056;2023-08-21T02:07:32;102381.97;;;14.42;100.00
60015;BME280;45867;52.480;6.056;2023-08-21T02:09:59;102384.56;;;14.37;100.00
60015;BME280;45867;52.480;6.056;2023-08-21T02:12:25;102385.81;;;14.25;100.00
60015;BME280;45867;52.480;6.056;2023-08-21T02:14:52;102384.63;;;14.15;100.00
60015;BME280;45867;52.480;6.056;2023-08-21T02:17:18;102353.78;;;13.92;100.00
60015;BME280;45867;52.480;6.056;2023-08-21T02:19:45;102380.78;;;14.01;100.00
60015;BME280;45867;52.480;6.056;2023-08-21T02:22:11;102381.03;;;13.99;100.00
60015;BME280;45867;52.480;6.056;2023-08-21T02:24:38;102393.59;;;14.04;100.00
60015;BME280;45867;52.480;6.056;2023-08-21T02:27:04;102368.63;;;13.88;100.00
60015;BME280;45867;52.480;6.056;2023-08-21T02:29:31;102356.25;;;13.77;100.00
60015;BME280;45867;52.480;6.056;2023-08-21T02:31:57;102388.16;;;13.94;100.00
60015;BME280;45867;52.480;6.056;2023-08-21T02:34:24;102361.06;;;13.75;100.00
60015;BME280;45867;52.480;6.056;2023-08-21T02:36:50;102384.09;;;13.86;100.00
60015;BME280;45867;52.480;6.056;2023-08-21T02:39:17;102378.56;;;13.93;100.00
60015;BME280;45867;52.480;6.056;2023-08-21T02:41:43;102390.34;;;13.97;100.00
60015;BME280;45867;52.480;6.056;2023-08-21T02:44:10;102399.63;;;13.94;100.00
60015;BME280;45867;52.480;6.056;2023-08-21T02:46:36;102403.59;;;13.92;100.00
60015;BME280;45867;52.480;6.056;2023-08-21T02:49:03;102403.66;;;13.97;100.00
60015;BME280;45867;52.480;6.056;2023-08-21T02:51:29;102403.59;;;13.92;100.00
60015;BME280;45867;52.480;6.056;2023-08-21T02:53:55;102402.81;;;13.91;100.00
60015;BME280;45867;52.480;6.056;2023-08-21T02:56:22;102406.50;;;13.90;100.00
60015;BME280;45867;52.480;6.056;2023-08-21T02:58:48;102401.78;;;13.97;100.00
60015;BME280;45867;52.480;6.056;2023-08-21T03:01:15;102405.91;;;14.10;100.00
60015;BME280;45867;52.480;6.056;2023-08-21T03:03:41;102397.72;;;14.17;100.00
60015;BME280;45867;52.480;6.056;2023-08-21T03:06:08;102400.41;;;14.17;100.00
60015;BME280;45867;52.480;6.056;2023-08-21T03:08:34;102398.81;;;14.16;100.00
60015;BME280;45867;52.480;6.056;2023-08-21T03:11:01;102397.00;;;14.21;100.00
60015;BME280;45867;52.480;6.056;2023-08-21T03:13:27;102384.47;;;14.22;100.00
60015;BME280;45867;52.480;6.056;2023-08-21T03:15:54;102384.50;;;14.27;100.00
60015;BME280;45867;52.480;6.056;2023-08-21T03:18:20;102390.38;;;14.29;100.00
60015;BME280;45867;52.480;6.056;2023-08-21T03:20:47;102396.53;;;14.30;100.00
60015;BME280;45867;52.480;6.056;2023-08-21T03:23:13;102367.03;;;14.14;100.00
60015;BME280;45867;52.480;6.056;2023-08-21T03:25:40;102387.22;;;14.32;100.00
60015;BME280;45867;52.480;6.056;2023-08-21T03:28:06;102394.22;;;14.38;100.00
60015;BME280;45867;52.480;6.056;2023-08-21T03:30:33;102396.06;;;14.38;100.00
60015;BME280;45867;52.480;6.056;2023-08-21T03:32:59;102386.44;;;14.37;100.00
60015;BME280;45867;52.480;6.056;2023-08-21T03:35:26;102385.97;;;14.45;100.00
60015;BME280;45867;52.480;6.056;2023-08-21T03:37:52;102385.75;;;14.47;100.00
60015;BME280;45867;52.480;6.056;2023-08-21T03:40:19;102378.81;;;14.51;100.00
60015;BME280;45867;52.480;6.056;2023-08-21T03:42:45;102389.00;;;14.54;100.00
60015;BME280;45867;52.480;6.056;2023-08-21T03:45:12;102384.44;;;14.49;100.00
60015;BME280;45867;52.480;6.056;2023-08-21T03:47:38;102385.19;;;14.44;100.00
60015;BME280;45867;52.480;6.056;2023-08-21T03:50:05;102366.75;;;14.38;100.00
60015;BME280;45867;52.480;6.056;2023-08-21T03:52:32;102387.91;;;14.50;100.00
60015;BME280;45867;52.480;6.056;2023-08-21T03:54:58;102384.13;;;14.46;100.00
60015;BME280;45867;52.480;6.056;2023-08-21T03:57:24;102377.69;;;14.41;100.00
60015;BME280;45867;52.480;6.056;2023-08-21T03:59:51;102374.69;;;14.33;100.00
60015;BME280;45867;52.480;6.056;2023-08-21T04:02:17;102366.13;;;14.31;100.00
60015;BME280;45867;52.480;6.056;2023-08-21T04:04:44;102374.41;;;14.34;100.00
60015;BME280;45867;52.480;6.056;2023-08-21T04:07:10;102382.97;;;14.36;100.00
60015;BME280;45867;52.480;6.056;2023-08-21T04:09:36;102374.53;;;14.17;100.00
60015;BME280;45867;52.480;6.056;2023-08-21T04:12:03;102384.97;;;14.19;100.00
60015;BME280;45867;52.480;6.056;2023-08-21T04:14:29;102364.28;;;14.04;100.00
60015;BME280;45867;52.480;6.056;2023-08-21T04:16:56;102387.13;;;14.22;100.00
60015;BME280;45867;52.480;6.056;2023-08-21T04:19:22;102386.28;;;14.16;100.00
60015;BME280;45867;52.480;6.056;2023-08-21T04:21:49;102403.25;;;14.10;100.00
60015;BME280;45867;52.480;6.056;2023-08-21T04:24:15;102403.69;;;14.02;100.00
60015;BME280;45867;52.480;6.056;2023-08-21T04:26:42;102403.97;;;14.01;100.00
60015;BME280;45867;52.480;6.056;2023-08-21T04:29:08;102404.53;;;14.03;100.00
60015;BME280;45867;52.480;6.056;2023-08-21T04:31:34;102397.25;;;13.98;100.00
60015;BME280;45867;52.480;6.056;2023-08-21T04:34:01;102400.16;;;13.96;100.00
60015;BME280;45867;52.480;6.056;2023-08-21T04:36:30;102400.13;;;13.91;100.00
60015;BME280;45867;52.480;6.056;2023-08-21T04:38:56;102414.31;;;13.97;100.00
60015;BME280;45867;52.480;6.056;2023-08-21T04:41:23;102410.66;;;14.03;100.00
60015;BME280;45867;52.480;6.056;2023-08-21T04:43:49;102406.34;;;14.02;100.00
60015;BME280;45867;52.480;6.056;2023-08-21T04:46:16;102411.81;;;14.12;100.00
60015;BME280;45867;52.480;6.056;2023-08-21T04:48:42;102399.28;;;14.13;100.00
60015;BME280;45867;52.480;6.056;2023-08-21T04:51:09;102392.41;;;14.17;100.00
60015;BME280;45867;52.480;6.056;2023-08-21T04:53:35;102394.34;;;14.27;100.00
60015;BME280;45867;52.480;6.056;2023-08-21T04:56:02;102377.72;;;14.14;100.00
60015;BME280;45867;52.480;6.056;2023-08-21T04:58:29;102402.16;;;14.33;100.00
60015;BME280;45867;52.480;6.056;2023-08-21T05:00:55;102401.34;;;14.33;100.00
60015;BME280;45867;52.480;6.056;2023-08-21T05:03:22;102407.28;;;14.40;100.00
60015;BME280;45867;52.480;6.056;2023-08-21T05:05:52;102408.63;;;14.42;100.00
60015;BME280;45867;52.480;6.056;2023-08-21T05:08:23;102393.94;;;14.40;100.00
60015;BME280;45867;52.480;6.056;2023-08-21T05:10:59;102411.19;;;14.54;100.00
60015;BME280;45867;52.480;6.056;2023-08-21T05:13:26;102421.13;;;14.64;100.00
60015;BME280;45867;52.480;6.056;2023-08-21T05:15:54;102410.25;;;14.71;100.00
60015;BME280;45867;52.480;6.056;2023-08-21T05:18:21;102417.28;;;14.82;100.00
60015;BME280;45867;52.480;6.056;2023-08-21T05:20:50;102427.19;;;14.92;100.00
60015;BME280;45867;52.480;6.056;2023-08-21T05:23:17;102403.94;;;14.82;100.00
60015;BME280;45867;52.480;6.056;2023-08-21T05:25:45;102415.00;;;15.01;100.00
60015;BME280;45867;52.480;6.056;2023-08-21T05:28:11;102420.94;;;15.13;100.00
60015;BME280;45867;52.480;6.056;2023-08-21T05:30:38;102423.94;;;15.22;100.00
60015;BME280;45867;52.480;6.056;2023-08-21T05:33:04;102451.03;;;15.41;100.00
60015;BME280;45867;52.480;6.056;2023-08-21T05:35:35;102447.06;;;15.48;100.00
60015;BME280;45867;52.480;6.056;2023-08-21T05:38:03;102461.03;;;15.66;100.00
60015;BME280;45867;52.480;6.056;2023-08-21T05:40:29;102473.72;;;15.81;100.00
60015;BME280;45867;52.480;6.056;2023-08-21T05:42:55;102475.34;;;15.92;100.00
60015;BME280;45867;52.480;6.056;2023-08-21T05:45:22;102485.53;;;16.00;100.00
60015;BME280;45867;52.480;6.056;2023-08-21T05:47:48;102484.50;;;16.06;100.00
60015;BME280;45867;52.480;6.056;2023-08-21T05:50:15;102491.22;;;16.19;100.00
60015;BME280;45867;52.480;6.056;2023-08-21T05:52:41;102494.19;;;16.33;100.00
60015;BME280;45867;52.480;6.056;2023-08-21T05:55:09;102501.44;;;16.48;100.00
60015;BME280;45867;52.480;6.056;2023-08-21T05:57:35;102507.13;;;16.61;100.00
60015;BME280;45867;52.480;6.056;2023-08-21T06:00:02;102510.91;;;16.91;100.00
60015;BME280;45867;52.480;6.056;2023-08-21T06:02:28;102505.78;;;17.30;100.00
60015;BME280;45867;52.480;6.056;2023-08-21T06:04:55;102521.03;;;17.56;100.00
60015;BME280;45867;52.480;6.056;2023-08-21T06:07:21;102504.91;;;17.66;100.00
60015;BME280;45867;52.480;6.056;2023-08-21T06:09:48;102517.13;;;18.08;100.00
60015;BME280;45867;52.480;6.056;2023-08-21T06:12:14;102508.59;;;18.45;100.00
60015;BME280;45867;52.480;6.056;2023-08-21T06:14:40;102515.31;;;18.87;100.00
60015;BME280;45867;52.480;6.056;2023-08-21T06:17:08;102520.56;;;19.02;100.00
60015;BME280;45867;52.480;6.056;2023-08-21T06:19:35;102517.78;;;19.42;100.00
60015;BME280;45867;52.480;6.056;2023-08-21T06:22:01;102509.34;;;19.78;100.00
60015;BME280;45867;52.480;6.056;2023-08-21T06:24:28;102514.69;;;20.02;100.00
60015;BME280;45867;52.480;6.056;2023-08-21T06:26:54;102518.59;;;20.33;100.00
60015;BME280;45867;52.480;6.056;2023-08-21T06:29:20;102509.94;;;20.55;100.00
60015;BME280;45867;52.480;6.056;2023-08-21T06:31:47;102505.22;;;20.99;100.00
60015;BME280;45867;52.480;6.056;2023-08-21T06:34:13;102500.47;;;21.23;100.00
60015;BME280;45867;52.480;6.056;2023-08-21T06:36:40;102495.41;;;21.49;100.00
60015;BME280;45867;52.480;6.056;2023-08-21T06:39:06;102503.22;;;22.15;100.00
60015;BME280;45867;52.480;6.056;2023-08-21T06:41:32;102493.50;;;21.91;100.00
60015;BME280;45867;52.480;6.056;2023-08-21T06:43:59;102488.59;;;21.93;100.00
60015;BME280;45867;52.480;6.056;2023-08-21T06:46:25;102491.66;;;22.01;100.00
60015;BME280;45867;52.480;6.056;2023-08-21T06:48:52;102461.66;;;22.83;100.00
60015;BME280;45867;52.480;6.056;2023-08-21T06:51:18;102435.19;;;23.52;100.00
60015;BME280;45867;52.480;6.056;2023-08-21T06:53:45;102410.69;;;23.48;100.00
60015;BME280;45867;52.480;6.056;2023-08-21T06:56:11;102413.22;;;22.65;100.00
60015;BME280;45867;52.480;6.056;2023-08-21T06:58:38;102418.66;;;22.06;100.00
60015;BME280;45867;52.480;6.056;2023-08-21T07:01:04;102420.00;;;21.94;100.00
60015;BME280;45867;52.480;6.056;2023-08-21T07:03:31;102438.22;;;21.89;100.00
60015;BME280;45867;52.480;6.056;2023-08-21T07:05:58;102445.09;;;22.31;100.00
60015;BME280;45867;52.480;6.056;2023-08-21T07:08:26;102444.47;;;22.79;100.00
60015;BME280;45867;52.480;6.056;2023-08-21T07:10:54;102427.34;;;23.24;100.00
60015;BME280;45867;52.480;6.056;2023-08-21T07:13:21;102387.28;;;23.43;100.00
60015;BME280;45867;52.480;6.056;2023-08-21T07:15:47;102373.78;;;23.69;100.00
60015;BME280;45867;52.480;6.056;2023-08-21T07:18:13;102349.75;;;24.03;100.00
60015;BME280;45867;52.480;6.056;2023-08-21T07:20:40;102328.81;;;24.47;100.00
60015;BME280;45867;52.480;6.056;2023-08-21T07:23:06;102314.19;;;24.77;100.00
60015;BME280;45867;52.480;6.056;2023-08-21T07:25:33;102288.84;;;24.73;100.00
60015;BME280;45867;52.480;6.056;2023-08-21T07:27:59;102279.56;;;25.04;100.00
60015;BME280;45867;52.480;6.056;2023-08-21T07:30:26;102260.56;;;24.83;100.00
60015;BME280;45867;52.480;6.056;2023-08-21T07:32:52;102246.16;;;25.12;100.00
60015;BME280;45867;52.480;6.056;2023-08-21T07:35:19;102271.25;;;25.51;100.00
60015;BME280;45867;52.480;6.056;2023-08-21T07:37:46;102213.03;;;25.61;100.00
60015;BME280;45867;52.480;6.056;2023-08-21T07:40:13;102159.78;;;25.68;100.00
60015;BME280;45867;52.480;6.056;2023-08-21T07:42:40;102202.38;;;26.50;100.00
60015;BME280;45867;52.480;6.056;2023-08-21T07:45:06;102263.06;;;26.30;100.00
60015;BME280;45867;52.480;6.056;2023-08-21T07:47:33;102276.19;;;26.03;100.00
60015;BME280;45867;52.480;6.056;2023-08-21T07:50:03;102296.16;;;26.32;100.00
60015;BME280;45867;52.480;6.056;2023-08-21T07:52:29;102327.16;;;26.19;100.00
60015;BME280;45867;52.480;6.056;2023-08-21T07:54:56;102341.41;;;26.16;100.00
60015;BME280;45867;52.480;6.056;2023-08-21T07:57:22;102356.94;;;26.85;100.00
60015;BME280;45867;52.480;6.056;2023-08-21T07:59:49;102372.72;;;27.57;100.00
60015;BME280;45867;52.480;6.056;2023-08-21T08:02:15;102386.75;;;26.94;100.00
60015;BME280;45867;52.480;6.056;2023-08-21T08:04:42;102381.22;;;26.45;100.00
60015;BME280;45867;52.480;6.056;2023-08-21T08:07:08;102399.44;;;26.77;100.00
60015;BME280;45867;52.480;6.056;2023-08-21T08:09:35;102392.16;;;26.82;100.00
60015;BME280;45867;52.480;6.056;2023-08-21T08:12:01;102399.22;;;26.83;100.00
60015;BME280;45867;52.480;6.056;2023-08-21T08:14:28;102410.19;;;25.95;100.00
60015;BME280;45867;52.480;6.056;2023-08-21T08:16:58;102417.34;;;25.49;100.00
60015;BME280;45867;52.480;6.056;2023-08-21T08:19:24;102426.16;;;25.16;100.00
60015;BME280;45867;52.480;6.056;2023-08-21T08:21:51;102429.91;;;25.83;100.00
60015;BME280;45867;52.480;6.056;2023-08-21T08:24:17;102423.75;;;25.95;100.00
60015;BME280;45867;52.480;6.056;2023-08-21T08:26:44;102418.56;;;26.02;100.00
60015;BME280;45867;52.480;6.056;2023-08-21T08:29:10;102420.34;;;26.19;100.00
60015;BME280;45867;52.480;6.056;2023-08-21T08:31:37;102426.88;;;26.85;100.00
60015;BME280;45867;52.480;6.056;2023-08-21T08:34:03;102431.88;;;26.49;100.00
60015;BME280;45867;52.480;6.056;2023-08-21T08:36:29;102427.53;;;26.36;100.00
60015;BME280;45867;52.480;6.056;2023-08-21T08:38:56;102433.75;;;26.37;100.00
60015;BME280;45867;52.480;6.056;2023-08-21T08:41:27;102441.81;;;26.78;100.00
60015;BME280;45867;52.480;6.056;2023-08-21T08:43:57;102422.00;;;28.48;100.00
60015;BME280;45867;52.480;6.056;2023-08-21T08:46:24;102402.53;;;28.97;100.00
60015;BME280;45867;52.480;6.056;2023-08-21T08:48:52;102411.31;;;27.99;100.00
60015;BME280;45867;52.480;6.056;2023-08-21T08:51:18;102427.00;;;27.90;100.00
60015;BME280;45867;52.480;6.056;2023-08-21T08:53:45;102435.94;;;27.50;100.00
60015;BME280;45867;52.480;6.056;2023-08-21T08:56:12;102442.34;;;27.82;100.00
60015;BME280;45867;52.480;6.056;2023-08-21T08:58:38;102440.03;;;28.25;100.00
60015;BME280;45867;52.480;6.056;2023-08-21T09:01:05;102434.41;;;29.09;100.00
60015;BME280;45867;52.480;6.056;2023-08-21T09:03:31;102424.50;;;29.56;100.00
60015;BME280;45867;52.480;6.056;2023-08-21T09:05:58;102422.44;;;30.50;100.00
60015;BME280;45867;52.480;6.056;2023-08-21T09:08:27;102415.28;;;30.65;100.00
60015;BME280;45867;52.480;6.056;2023-08-21T09:10:53;102415.97;;;31.08;100.00
60015;BME280;45867;52.480;6.056;2023-08-21T09:13:20;102407.41;;;31.70;100.00
60015;BME280;45867;52.480;6.056;2023-08-21T09:15:54;102396.88;;;32.46;100.00
60015;BME280;45867;52.480;6.056;2023-08-21T09:18:21;102407.94;;;33.09;100.00
60015;BME280;45867;52.480;6.056;2023-08-21T09:20:48;102407.88;;;33.82;100.00
60015;BME280;45867;52.480;6.056;2023-08-21T09:23:16;102408.25;;;33.70;100.00
60015;BME280;45867;52.480;6.056;2023-08-21T09:25:47;102408.72;;;35.15;100.00
60015;BME280;45867;52.480;6.056;2023-08-21T09:28:18;102396.59;;;34.66;100.00
60015;BME280;45867;52.480;6.056;2023-08-21T09:30:52;102403.66;;;34.78;100.00
60015;BME280;45867;52.480;6.056;2023-08-21T09:33:21;102415.03;;;34.98;100.00
60015;BME280;45867;52.480;6.056;2023-08-21T09:35:49;102413.44;;;35.11;100.00
60015;BME280;45867;52.480;6.056;2023-08-21T09:38:17;102398.16;;;34.53;100.00
60015;BME280;45867;52.480;6.056;2023-08-21T09:40:50;102407.78;;;35.54;100.00
60015;BME280;45867;52.480;6.056;2023-08-21T09:43:16;102392.25;;;34.36;100.00
60015;BME280;45867;52.480;6.056;2023-08-21T09:45:47;102391.84;;;34.34;100.00
60015;BME280;45867;52.480;6.056;2023-08-21T09:48:14;102384.50;;;33.36;100.00
60015;BME280;45867;52.480;6.056;2023-08-21T09:50:41;102407.50;;;31.77;100.00
60015;BME280;45867;52.480;6.056;2023-08-21T09:53:07;102399.56;;;30.81;100.00
60015;BME280;45867;52.480;6.056;2023-08-21T09:55:35;102396.97;;;30.23;100.00
60015;BME280;45867;52.480;6.056;2023-08-21T09:58:02;102385.53;;;30.37;100.00
60015;BME280;45867;52.480;6.056;2023-08-21T10:00:30;102393.38;;;31.41;100.00
60015;BME280;45867;52.480;6.056;2023-08-21T10:03:00;102392.94;;;32.99;100.00
60015;BME280;45867;52.480;6.056;2023-08-21T10:05:28;102374.00;;;33.53;100.00
60015;BME280;45867;52.480;6.056;2023-08-21T10:07:55;102385.56;;;34.23;100.00
60015;BME280;45867;52.480;6.056;2023-08-21T10:10:22;102381.66;;;34.31;100.00
60015;BME280;45867;52.480;6.056;2023-08-21T10:12:49;102381.81;;;33.40;100.00
60015;BME280;45867;52.480;6.056;2023-08-21T10:15:16;102373.06;;;31.46;100.00
60015;BME280;45867;52.480;6.056;2023-08-21T10:17:43;102370.16;;;30.55;100.00
60015;BME280;45867;52.480;6.056;2023-08-21T10:20:10;102367.34;;;31.58;100.00
60015;BME280;45867;52.480;6.056;2023-08-21T10:22:43;102365.13;;;32.04;100.00
60015;BME280;45867;52.480;6.056;2023-08-21T10:25:18;102374.09;;;32.98;100.00
60015;BME280;45867;52.480;6.056;2023-08-21T10:27:46;102342.72;;;34.40;100.00
60015;BME280;45867;52.480;6.056;2023-08-21T10:30:20;102369.84;;;34.77;100.00
60015;BME280;45867;52.480;6.056;2023-08-21T10:32:47;102363.09;;;33.78;100.00
60015;BME280;45867;52.480;6.056;2023-08-21T10:35:16;102358.41;;;34.82;100.00
60015;BME280;45867;52.480;6.056;2023-08-21T10:38:17;102362.72;;;34.90;99.17
60015;BME280;45867;52.480;6.056;2023-08-21T10:41:04;102361.91;;;33.82;100.00
60015;BME280;45867;52.480;6.056;2023-08-21T10:43:38;102374.16;;;32.05;100.00
60015;BME280;45867;52.480;6.056;2023-08-21T10:46:06;102365.59;;;32.14;100.00
60015;BME280;45867;52.480;6.056;2023-08-21T10:48:33;102373.47;;;33.22;100.00
60015;BME280;45867;52.480;6.056;2023-08-21T10:51:02;102356.06;;;31.33;100.00
60015;BME280;45867;52.480;6.056;2023-08-21T10:53:28;102373.44;;;31.14;100.00
60015;BME280;45867;52.480;6.056;2023-08-21T10:55:55;102369.09;;;32.11;100.00
60015;BME280;45867;52.480;6.056;2023-08-21T10:58:22;102371.72;;;31.32;100.00
60015;BME280;45867;52.480;6.056;2023-08-21T11:01:00;102375.59;;;31.01;100.00
60015;BME280;45867;52.480;6.056;2023-08-21T11:03:27;102373.25;;;32.38;100.00
60015;BME280;45867;52.480;6.056;2023-08-21T11:06:04;102367.44;;;34.00;100.00
60015;BME280;45867;52.480;6.056;2023-08-21T11:08:32;102367.47;;;34.76;97.71
60015;BME280;45867;52.480;6.056;2023-08-21T11:11:00;102379.69;;;34.57;100.00
60015;BME280;45867;52.480;6.056;2023-08-21T11:13:26;102376.53;;;34.19;100.00
60015;BME280;45867;52.480;6.056;2023-08-21T11:15:59;102372.84;;;33.54;91.32
60015;BME280;45867;52.480;6.056;2023-08-21T11:18:30;102374.53;;;34.87;91.77
60015;BME280;45867;52.480;6.056;2023-08-21T11:21:12;102380.06;;;34.69;83.21
60015;BME280;45867;52.480;6.056;2023-08-21T11:23:40;102384.75;;;33.03;88.39
60015;BME280;45867;52.480;6.056;2023-08-21T11:26:10;102361.50;;;33.77;87.54
60015;BME280;45867;52.480;6.056;2023-08-21T11:28:47;102371.00;;;34.87;79.06
60015;BME280;45867;52.480;6.056;2023-08-21T11:31:14;102357.59;;;35.84;79.60
60015;BME280;45867;52.480;6.056;2023-08-21T11:33:40;102352.53;;;35.75;76.87
60015;BME280;45867;52.480;6.056;2023-08-21T11:36:07;102367.09;;;34.70;74.50
60015;BME280;45867;52.480;6.056;2023-08-21T11:38:34;102363.88;;;34.89;82.10
60015;BME280;45867;52.480;6.056;2023-08-21T11:41:02;102357.25;;;34.40;84.03
60015;BME280;45867;52.480;6.056;2023-08-21T11:43:39;102363.59;;;34.62;80.01
60015;BME280;45867;52.480;6.056;2023-08-21T11:46:07;102361.59;;;34.09;81.12
60015;BME280;45867;52.480;6.056;2023-08-21T11:48:37;102366.63;;;35.07;82.49
60015;BME280;45867;52.480;6.056;2023-08-21T11:51:04;102363.56;;;34.09;77.71
60015;BME280;45867;52.480;6.056;2023-08-21T11:53:32;102355.69;;;34.18;79.22
60015;BME280;45867;52.480;6.056;2023-08-21T11:55:58;102364.81;;;33.16;79.91
60015;BME280;45867;52.480;6.056;2023-08-21T11:58:27;102351.41;;;32.01;82.15
60015;BME280;45867;52.480;6.056;2023-08-21T12:00:54;102350.66;;;33.07;77.67
60015;BME280;45867;52.480;6.056;2023-08-21T12:03:27;102340.88;;;33.17;81.05
60015;BME280;45867;52.480;6.056;2023-08-21T12:05:54;102351.72;;;33.87;80.32
60015;BME280;45867;52.480;6.056;2023-08-21T12:08:21;102345.09;;;34.16;74.71
60015;BME280;45867;52.480;6.056;2023-08-21T12:10:51;102340.75;;;34.47;74.87
60015;BME280;45867;52.480;6.056;2023-08-21T12:13:17;102342.31;;;34.59;73.87
60015;BME280;45867;52.480;6.056;2023-08-21T12:15:44;102339.16;;;34.00;75.19
60015;BME280;45867;52.480;6.056;2023-08-21T12:18:10;102345.47;;;34.08;78.40
60015;BME280;45867;52.480;6.056;2023-08-21T12:20:37;102344.63;;;33.86;80.92
60015;BME280;45867;52.480;6.056;2023-08-21T12:23:03;102339.34;;;33.27;71.10
60015;BME280;45867;52.480;6.056;2023-08-21T12:25:29;102342.47;;;33.22;71.65
60015;BME280;45867;52.480;6.056;2023-08-21T12:27:56;102330.94;;;32.98;72.75
60015;BME280;45867;52.480;6.056;2023-08-21T12:30:34;102340.66;;;32.29;71.95
60015;BME280;45867;52.480;6.056;2023-08-21T12:33:01;102340.44;;;32.04;72.83
60015;BME280;45867;52.480;6.056;2023-08-21T12:35:45;102340.34;;;31.94;66.07
60015;BME280;45867;52.480;6.056;2023-08-21T12:38:12;102340.38;;;31.97;74.93
60015;BME280;45867;52.480;6.056;2023-08-21T12:40:39;102348.69;;;33.04;64.83
60015;BME280;45867;52.480;6.056;2023-08-21T12:43:06;102337.47;;;32.20;60.63
60015;BME280;45867;52.480;6.056;2023-08-21T12:45:35;102346.31;;;31.35;75.85